Time;durP1;ratioP1;P1;durP2;ratioP2;P2;SDS_P1;SDS_P2;PMS_P1;PMS_P2;Temp;Humidity;BMP_temperature;BMP_pressure;BME280_temperature;BME280_humidity;BME280_pressure;Samples;Min_cycle;Max_cycle;Signal;HPM_P1;HPM_P2
2023/03/09 00:01:25;;;;;;;16.20;8.85;;;14.60;1.00;;;;;;4955393;29;20019;-58
2023/03/09 00:03:51;;;;;;;15.52;10.13;;;14.60;1.00;;;;;;4955939;29;20082;-59
2023/03/09 00:06:17;;;;;;;13.60;9.18;;;14.60;1.00;;;;;;4955054;29;20071;-58
2023/03/09 00:08:44;;;;;;;15.80;9.73;;;14.60;1.00;;;;;;4955448;29;20026;-58
2023/03/09 00:11:10;;;;;;;17.75;9.70;;;14.60;1.00;;;;;;4955640;29;20050;-58
2023/03/09 00:13:36;;;;;;;18.92;8.88;;;14.50;1.00;;;;;;4938226;29;20015;-58
2023/03/09 00:16:13;;;;;;;12.68;9.40;;;14.60;1.00;;;;;;4955077;29;20035;-58
2023/03/09 00:19:45;;;;;;;13.68;9.77;;;14.60;1.00;;;;;;4949555;29;20110;-58
2023/03/09 00:22:11;;;;;;;11.55;8.32;;;14.60;1.00;;;;;;4953651;29;20062;-58
2023/03/09 00:24:46;;;;;;;14.73;9.18;;;14.50;1.00;;;;;;4955255;29;20034;-58
2023/03/09 00:27:12;;;;;;;15.65;9.93;;;14.50;1.00;;;;;;4955466;29;20027;-59
2023/03/09 00:29:38;;;;;;;15.75;9.38;;;14.50;1.00;;;;;;4955060;29;20110;-59
2023/03/09 00:32:04;;;;;;;19.27;14.70;;;14.50;1.00;;;;;;4955129;29;20130;-59
2023/03/09 00:34:29;;;;;;;12.93;10.18;;;14.50;1.00;;;;;;4955111;29;20035;-59
2023/03/09 00:36:55;;;;;;;12.65;8.32;;;14.50;1.00;;;;;;4954948;29;20034;-59
2023/03/09 00:39:21;;;;;;;14.80;8.40;;;14.50;1.00;;;;;;4954903;29;20027;-58
2023/03/09 00:41:47;;;;;;;12.10;7.70;;;14.40;1.00;;;;;;4954870;29;20027;-59
2023/03/09 00:44:14;;;;;;;14.63;9.02;;;14.40;1.00;;;;;;4954828;29;20086;-58
2023/03/09 00:46:40;;;;;;;12.80;9.50;;;14.40;1.00;;;;;;4954819;29;20058;-58
2023/03/09 00:49:06;;;;;;;10.23;8.20;;;14.40;1.00;;;;;;4955021;29;20027;-59
2023/03/09 00:51:33;;;;;;;17.33;10.38;;;14.40;1.00;;;;;;4954818;29;20050;-58
2023/03/09 00:53:59;;;;;;;14.70;8.98;;;14.20;1.00;;;;;;4954107;29;20031;-58
2023/03/09 00:56:26;;;;;;;16.13;9.30;;;14.20;1.00;;;;;;4954383;28;20036;-58
2023/03/09 00:58:53;;;;;;;15.07;9.98;;;14.20;1.00;;;;;;4954935;29;20023;-58
2023/03/09 01:01:19;;;;;;;16.00;9.20;;;14.20;1.00;;;;;;4954815;29;20024;-58
2023/03/09 01:03:46;;;;;;;14.00;10.02;;;14.10;1.00;;;;;;4954838;29;20031;-58
2023/03/09 01:06:13;;;;;;;15.25;9.38;;;14.10;1.00;;;;;;4953703;29;20126;-58
2023/03/09 01:08:39;;;;;;;12.88;8.45;;;14.00;1.00;;;;;;4954654;29;20102;-58
2023/03/09 01:11:06;;;;;;;13.13;8.05;;;14.00;1.00;;;;;;4954951;29;20167;-59
2023/03/09 01:13:32;;;;;;;15.50;8.27;;;14.00;1.00;;;;;;4954671;29;20034;-58
2023/03/09 01:15:58;;;;;;;12.13;8.30;;;13.80;1.00;;;;;;4954900;29;20024;-59
2023/03/09 01:18:24;;;;;;;13.10;8.90;;;13.90;1.00;;;;;;4954701;29;20045;-59
2023/03/09 01:20:49;;;;;;;15.18;10.25;;;13.90;1.00;;;;;;4954851;29;20031;-59
2023/03/09 01:23:15;;;;;;;14.27;10.40;;;13.70;1.00;;;;;;4954361;29;20467;-59
2023/03/09 01:25:41;;;;;;;18.35;10.95;;;13.60;1.00;;;;;;4954861;29;20034;-59
2023/03/09 01:28:07;;;;;;;15.02;10.25;;;13.60;1.00;;;;;;4954424;29;20031;-59
2023/03/09 01:34:14;;;;;;;19.30;11.18;;;13.60;1.00;;;;;;4954109;29;20046;-59
2023/03/09 01:36:40;;;;;;;12.40;9.68;;;13.60;1.00;;;;;;4954666;29;20031;-59
2023/03/09 01:39:06;;;;;;;14.73;9.13;;;13.50;1.00;;;;;;4954774;29;20118;-59
2023/03/09 01:41:31;;;;;;;15.35;9.23;;;13.60;1.00;;;;;;4954554;29;20098;-59
2023/03/09 01:43:57;;;;;;;15.75;10.07;;;13.60;1.00;;;;;;4954320;29;20031;-59
2023/03/09 01:46:28;;;;;;;17.38;11.73;;;13.60;1.00;;;;;;4954403;29;20039;-59
2023/03/09 01:48:57;;;;;;;16.27;10.23;;;13.60;1.00;;;;;;4954888;29;20046;-59
2023/03/09 01:51:26;;;;;;;13.63;9.82;;;13.60;1.00;;;;;;4954248;29;20058;-58
2023/03/09 01:54:22;;;;;;;18.33;12.00;;;13.60;1.00;;;;;;4954903;29;20118;-59
2023/03/09 01:56:52;;;;;;;17.00;10.60;;;13.60;1.00;;;;;;4954282;29;20106;-58
2023/03/09 01:59:19;;;;;;;19.50;10.73;;;13.60;1.00;;;;;;4954423;29;20087;-59
2023/03/09 02:01:45;;;;;;;16.15;11.20;;;13.60;1.00;;;;;;4954143;29;20062;-59
2023/03/09 02:04:18;;;;;;;17.17;11.60;;;13.70;1.00;;;;;;4937132;29;20069;-59
2023/03/09 02:06:44;;;;;;;17.10;10.38;;;13.80;1.00;;;;;;4954241;28;20086;-59
2023/03/09 02:09:42;;;;;;;16.98;11.57;;;13.90;1.00;;;;;;4940421;29;20477;-59
2023/03/09 02:12:11;;;;;;;17.70;10.55;;;13.90;1.00;;;;;;4940129;29;20038;-59
2023/03/09 02:14:37;;;;;;;14.60;10.45;;;13.90;1.00;;;;;;4957135;29;20054;-59
2023/03/09 02:17:03;;;;;;;14.43;10.52;;;14.00;1.00;;;;;;4956753;29;20118;-59
2023/03/09 02:19:28;;;;;;;14.32;10.05;;;13.90;1.00;;;;;;4957144;29;20098;-59
2023/03/09 02:21:55;;;;;;;17.83;11.30;;;13.90;1.00;;;;;;4956695;29;20117;-59
2023/03/09 02:24:37;;;;;;;17.13;11.13;;;13.90;1.00;;;;;;4946074;29;20027;-59
2023/03/09 02:27:21;;;;;;;12.88;9.88;;;14.00;1.00;;;;;;4956808;29;20023;-59
2023/03/09 02:29:47;;;;;;;19.63;10.00;;;14.00;1.00;;;;;;4944597;29;20031;-59
2023/03/09 02:32:14;;;;;;;14.73;11.43;;;13.90;1.00;;;;;;4956179;29;20070;-59
2023/03/09 02:34:40;;;;;;;13.98;10.13;;;13.90;1.00;;;;;;4925821;29;20016;-59
2023/03/09 02:37:33;;;;;;;13.80;10.32;;;14.00;1.00;;;;;;4956372;29;20125;-58
2023/03/09 02:40:10;;;;;;;15.68;8.93;;;13.90;1.00;;;;;;4956339;29;20108;-59
2023/03/09 02:42:37;;;;;;;14.40;10.00;;;13.90;1.00;;;;;;4956596;29;20110;-59
2023/03/09 02:45:03;;;;;;;15.55;10.27;;;13.90;1.00;;;;;;4956800;29;20027;-59
2023/03/09 02:47:29;;;;;;;16.83;10.13;;;14.00;1.00;;;;;;4956210;29;20118;-59
2023/03/09 02:49:55;;;;;;;14.55;11.05;;;14.00;1.00;;;;;;4956327;29;20102;-59
2023/03/09 02:52:20;;;;;;;12.20;10.18;;;14.00;1.00;;;;;;4956275;29;20039;-59
2023/03/09 02:54:46;;;;;;;13.85;10.38;;;14.00;1.00;;;;;;4955243;29;20027;-59
2023/03/09 02:57:13;;;;;;;15.45;11.05;;;14.00;1.00;;;;;;4956394;29;20429;-59
2023/03/09 02:59:38;;;;;;;15.10;11.30;;;14.00;1.00;;;;;;4956731;29;20027;-59
2023/03/09 03:02:04;;;;;;;14.27;10.55;;;14.00;1.00;;;;;;4956843;29;20114;-59
2023/03/09 03:04:30;;;;;;;14.32;10.20;;;14.00;1.00;;;;;;4939639;29;20426;-59
2023/03/09 03:06:56;;;;;;;14.48;10.30;;;13.80;1.00;;;;;;4956373;29;20555;-59
2023/03/09 03:09:22;;;;;;;17.67;10.73;;;13.90;1.00;;;;;;4956769;29;20023;-59
2023/03/09 03:11:48;;;;;;;13.52;9.80;;;13.90;1.00;;;;;;4956459;29;20400;-59
2023/03/09 03:14:13;;;;;;;16.55;11.60;;;13.90;1.00;;;;;;4956770;29;20031;-59
2023/03/09 03:16:39;;;;;;;19.15;11.80;;;13.90;1.00;;;;;;4956838;29;20039;-59
2023/03/09 03:19:05;;;;;;;17.83;12.70;;;13.90;1.00;;;;;;4955609;28;20015;-59
2023/03/09 03:21:30;;;;;;;18.20;13.35;;;13.90;1.00;;;;;;4956702;29;20101;-59
2023/03/09 03:23:56;;;;;;;18.55;13.50;;;13.90;1.00;;;;;;4956439;29;20043;-59
2023/03/09 03:26:22;;;;;;;15.52;12.85;;;14.00;1.00;;;;;;4956086;29;20043;-59
2023/03/09 03:28:47;;;;;;;18.50;12.85;;;14.00;1.00;;;;;;4956426;29;20031;-59
2023/03/09 03:31:13;;;;;;;20.05;12.13;;;13.90;1.00;;;;;;4956034;29;20035;-59
2023/03/09 03:33:39;;;;;;;18.73;14.50;;;14.00;1.00;;;;;;4955979;29;20031;-59
2023/03/09 03:36:05;;;;;;;17.55;13.07;;;14.00;1.00;;;;;;4955893;29;20023;-59
2023/03/09 03:38:31;;;;;;;18.15;13.80;;;13.90;1.00;;;;;;4956426;29;20035;-59
2023/03/09 03:40:57;;;;;;;18.80;13.00;;;13.90;1.00;;;;;;4955937;29;20063;-59
2023/03/09 03:43:22;;;;;;;18.83;13.18;;;14.00;1.00;;;;;;4956166;29;20114;-59
2023/03/09 03:45:48;;;;;;;21.05;13.23;;;13.90;1.00;;;;;;4956452;29;20086;-59
2023/03/09 03:48:14;;;;;;;17.80;12.15;;;13.90;1.00;;;;;;4955782;29;20023;-59
2023/03/09 03:50:39;;;;;;;18.63;13.18;;;13.80;1.00;;;;;;4950975;29;20020;-59
2023/03/09 03:53:06;;;;;;;16.70;12.32;;;13.90;1.00;;;;;;4947071;29;20098;-59
2023/03/09 03:55:32;;;;;;;19.67;11.25;;;13.90;1.00;;;;;;4955701;29;20099;-59
2023/03/09 03:57:57;;;;;;;17.35;12.27;;;13.80;1.00;;;;;;4956005;29;20023;-59
2023/03/09 04:00:24;;;;;;;19.33;12.88;;;13.90;1.00;;;;;;4955165;29;20492;-59
2023/03/09 04:02:50;;;;;;;17.55;12.55;;;13.90;1.00;;;;;;4955445;29;20022;-58
2023/03/09 04:05:16;;;;;;;18.73;12.02;;;13.80;1.00;;;;;;4955387;29;20137;-58
2023/03/09 04:07:42;;;;;;;19.83;13.02;;;13.90;1.00;;;;;;4955776;29;20407;-59
2023/03/09 04:10:08;;;;;;;17.25;11.55;;;13.90;1.00;;;;;;4955547;29;20030;-59
2023/03/09 04:12:59;;;;;;;21.13;13.27;;;13.90;1.00;;;;;;4952441;29;20445;-59
2023/03/09 04:15:25;;;;;;;17.77;12.60;;;13.90;1.00;;;;;;4951490;29;20043;-59
2023/03/09 04:17:51;;;;;;;19.35;12.32;;;13.80;1.00;;;;;;4955302;29;20016;-59
2023/03/09 04:20:17;;;;;;;22.25;13.57;;;13.90;1.00;;;;;;4955408;29;20081;-58
2023/03/09 04:22:43;;;;;;;15.70;11.95;;;13.80;1.00;;;;;;4954415;29;20023;-59
2023/03/09 04:25:09;;;;;;;18.75;12.88;;;13.90;1.00;;;;;;4955456;29;20031;-59
2023/03/09 04:27:35;;;;;;;21.95;14.18;;;13.80;1.00;;;;;;4954914;29;20142;-59
2023/03/09 04:30:01;;;;;;;20.08;13.73;;;13.90;1.00;;;;;;4955262;28;20098;-59
2023/03/09 04:32:27;;;;;;;19.10;13.50;;;13.90;1.00;;;;;;4955284;29;20171;-59
2023/03/09 04:34:52;;;;;;;22.85;14.52;;;13.90;1.00;;;;;;4955541;29;20031;-59
2023/03/09 04:37:18;;;;;;;22.63;14.07;;;13.90;1.00;;;;;;4955328;29;20027;-59
2023/03/09 04:39:43;;;;;;;23.52;16.77;;;13.90;1.00;;;;;;4955177;29;20109;-60
2023/03/09 04:42:09;;;;;;;25.50;18.00;;;13.90;1.00;;;;;;4955167;29;20031;-59
2023/03/09 04:44:35;;;;;;;23.80;16.35;;;13.90;1.00;;;;;;4938118;29;20071;-59
2023/03/09 04:47:01;;;;;;;24.52;16.70;;;13.90;1.00;;;;;;4955259;29;20114;-59
2023/03/09 04:49:26;;;;;;;21.85;16.67;;;14.00;1.00;;;;;;4942676;29;20470;-60
2023/03/09 04:51:52;;;;;;;24.55;17.67;;;14.00;1.00;;;;;;4955240;29;20041;-60
2023/03/09 04:54:17;;;;;;;21.67;16.65;;;14.00;1.00;;;;;;4954865;29;20039;-61
2023/03/09 04:56:43;;;;;;;23.27;16.25;;;14.00;1.00;;;;;;4954160;29;20051;-60
2023/03/09 04:59:09;;;;;;;26.80;17.90;;;14.00;1.00;;;;;;4955096;29;20133;-60
2023/03/09 05:01:35;;;;;;;21.92;15.88;;;14.00;1.00;;;;;;4955053;29;20085;-58
2023/03/09 05:04:00;;;;;;;26.15;17.67;;;14.00;1.00;;;;;;4954840;29;20080;-58
2023/03/09 05:06:26;;;;;;;26.27;18.35;;;14.00;1.00;;;;;;4954401;29;20129;-58
2023/03/09 05:08:51;;;;;;;29.77;17.63;;;14.00;1.00;;;;;;4954733;29;20042;-58
2023/03/09 05:11:17;;;;;;;25.90;19.00;;;14.00;1.00;;;;;;4954976;29;20035;-58
2023/03/09 05:13:43;;;;;;;27.38;18.95;;;14.00;1.00;;;;;;4954528;29;20460;-58
2023/03/09 05:16:08;;;;;;;26.63;17.98;;;14.00;1.00;;;;;;4954744;29;20082;-58
2023/03/09 05:18:35;;;;;;;26.85;17.88;;;14.00;1.00;;;;;;4954737;29;20027;-58
2023/03/09 05:21:07;;;;;;;26.90;17.23;;;14.00;1.00;;;;;;4954559;29;20020;-58
2023/03/09 05:23:34;;;;;;;25.60;17.30;;;14.00;1.00;;;;;;4954963;29;20330;-58
2023/03/09 05:26:01;;;;;;;21.90;16.52;;;13.80;1.00;;;;;;4937538;29;20026;-59
2023/03/09 05:28:28;;;;;;;27.80;18.42;;;14.00;1.00;;;;;;4937286;29;20060;-59
2023/03/09 05:30:53;;;;;;;24.60;17.65;;;13.90;1.00;;;;;;4954292;29;20474;-59
2023/03/09 05:33:19;;;;;;;26.33;17.83;;;13.90;1.00;;;;;;4954361;29;20031;-59
2023/03/09 05:35:45;;;;;;;25.70;18.35;;;13.90;1.00;;;;;;4954217;29;20031;-59
2023/03/09 05:38:11;;;;;;;25.88;18.02;;;14.00;1.00;;;;;;4954224;29;20335;-61
2023/03/09 05:40:36;;;;;;;27.02;18.58;;;13.90;1.00;;;;;;4937115;29;20397;-60
2023/03/09 05:43:02;;;;;;;24.63;18.98;;;13.90;1.00;;;;;;4956779;28;20031;-60
2023/03/09 05:45:28;;;;;;;23.23;18.30;;;13.90;1.00;;;;;;4958528;29;20492;-60
2023/03/09 05:47:53;;;;;;;26.15;18.73;;;13.80;1.00;;;;;;4948167;29;20026;-60
2023/03/09 05:50:19;;;;;;;26.25;19.35;;;13.80;1.00;;;;;;4958331;29;20034;-60
2023/03/09 05:52:45;;;;;;;23.98;17.83;;;13.90;1.00;;;;;;4957941;29;20191;-61
2023/03/09 05:55:10;;;;;;;23.25;17.45;;;13.90;1.00;;;;;;4958123;29;20047;-60
2023/03/09 05:57:38;;;;;;;24.20;17.90;;;13.80;1.00;;;;;;4957818;29;20397;-60
2023/03/09 06:00:06;;;;;;;22.15;16.63;;;13.90;1.00;;;;;;4958249;29;20027;-60
2023/03/09 06:02:32;;;;;;;21.88;16.58;;;13.80;1.00;;;;;;4957953;29;20050;-60
2023/03/09 06:04:58;;;;;;;26.75;17.30;;;13.80;1.00;;;;;;4957910;29;20034;-60
2023/03/09 06:07:27;;;;;;;28.83;18.95;;;13.80;1.00;;;;;;4958057;29;20130;-61
2023/03/09 06:09:53;;;;;;;20.52;16.95;;;13.80;1.00;;;;;;4957466;29;20023;-60
2023/03/09 06:12:19;;;;;;;28.80;18.83;;;13.80;1.00;;;;;;4957913;29;20043;-60
2023/03/09 06:14:48;;;;;;;23.70;17.85;;;13.80;1.00;;;;;;4957615;29;20118;-60
2023/03/09 06:17:14;;;;;;;24.23;18.05;;;13.80;1.00;;;;;;4957521;29;20450;-60
2023/03/09 06:19:40;;;;;;;25.15;18.70;;;13.80;1.00;;;;;;4957680;29;20532;-60
2023/03/09 06:22:06;;;;;;;27.83;17.95;;;13.60;1.00;;;;;;4957560;29;20031;-60
2023/03/09 06:24:32;;;;;;;23.52;18.13;;;13.70;1.00;;;;;;4957494;29;20031;-60
2023/03/09 06:26:58;;;;;;;25.85;18.70;;;13.70;1.00;;;;;;4957560;29;20038;-60
2023/03/09 06:29:25;;;;;;;23.05;18.95;;;13.70;1.00;;;;;;4957328;29;20473;-60
2023/03/09 06:31:51;;;;;;;23.67;18.15;;;13.70;1.00;;;;;;4957405;29;20049;-60
2023/03/09 06:34:17;;;;;;;25.85;19.70;;;13.70;1.00;;;;;;4939929;29;20027;-60
2023/03/09 06:36:43;;;;;;;29.38;18.52;;;13.60;1.00;;;;;;4940207;29;20066;-61
2023/03/09 06:39:09;;;;;;;26.88;18.83;;;13.70;1.00;;;;;;4957735;29;20031;-60
2023/03/09 06:41:36;;;;;;;23.33;19.27;;;13.70;1.00;;;;;;4957008;29;20532;-60
2023/03/09 06:44:02;;;;;;;29.70;19.80;;;13.70;1.00;;;;;;4957235;29;20106;-61
2023/03/09 06:46:28;;;;;;;26.58;19.35;;;13.70;1.00;;;;;;4956758;29;20031;-60
2023/03/09 06:48:53;;;;;;;27.10;18.73;;;13.70;1.00;;;;;;4957349;29;20031;-61
2023/03/09 06:51:28;;;;;;;26.13;19.52;;;13.70;1.00;;;;;;4956989;29;20409;-60
2023/03/09 06:53:54;;;;;;;24.75;18.95;;;13.80;1.00;;;;;;4956832;28;20382;-60
2023/03/09 06:56:19;;;;;;;25.67;18.10;;;13.80;1.00;;;;;;4956333;29;20024;-60
2023/03/09 06:58:45;;;;;;;28.98;19.58;;;13.70;1.00;;;;;;4957106;29;20023;-60
2023/03/09 07:01:12;;;;;;;28.63;19.85;;;13.60;1.00;;;;;;4956320;29;20110;-60
2023/03/09 07:03:39;;;;;;;25.20;17.52;;;13.60;1.00;;;;;;4939422;29;20030;-59
2023/03/09 07:06:06;;;;;;;25.60;18.70;;;13.60;1.00;;;;;;4956547;29;20051;-58
2023/03/09 07:08:32;;;;;;;22.92;17.98;;;13.50;1.00;;;;;;4956786;29;20449;-60
2023/03/09 07:10:59;;;;;;;25.63;19.27;;;13.40;1.00;;;;;;4956934;29;20047;-60
2023/03/09 07:13:24;;;;;;;26.48;18.40;;;13.50;1.00;;;;;;4956166;29;20028;-54
2023/03/09 07:15:50;;;;;;;24.77;17.88;;;13.50;1.00;;;;;;4956888;29;20027;-57
2023/03/09 07:18:16;;;;;;;27.95;18.50;;;13.60;1.00;;;;;;4956698;29;20483;-57
2023/03/09 07:20:42;;;;;;;26.65;18.02;;;13.70;1.00;;;;;;4956694;29;20031;-55
2023/03/09 07:23:09;;;;;;;24.55;18.42;;;13.70;1.00;;;;;;4956360;29;20023;-57
2023/03/09 07:25:36;;;;;;;23.20;18.05;;;13.70;1.00;;;;;;4956549;29;20031;-56
2023/03/09 07:28:04;;;;;;;26.08;18.38;;;13.80;1.00;;;;;;4956379;29;20086;-56
2023/03/09 07:30:30;;;;;;;25.27;17.95;;;13.80;1.00;;;;;;4956475;29;20071;-55
2023/03/09 07:32:57;;;;;;;24.02;18.73;;;13.70;1.00;;;;;;4956154;29;20179;-58
2023/03/09 07:35:23;;;;;;;30.35;19.00;;;13.70;1.00;;;;;;4956552;29;20039;-58
2023/03/09 07:37:49;;;;;;;28.95;19.90;;;13.70;1.00;;;;;;4955828;29;20482;-58
2023/03/09 07:40:15;;;;;;;25.45;18.73;;;13.70;1.00;;;;;;4956207;29;20030;-58
2023/03/09 07:42:42;;;;;;;27.60;19.20;;;13.70;1.00;;;;;;4956190;29;20083;-57
2023/03/09 07:45:09;;;;;;;27.33;21.08;;;13.70;1.00;;;;;;4955789;29;20103;-56
2023/03/09 07:47:34;;;;;;;24.15;19.20;;;13.80;1.00;;;;;;4956065;29;20113;-53
2023/03/09 07:50:01;;;;;;;26.23;19.67;;;13.80;1.00;;;;;;4956070;29;20437;-53
2023/03/09 07:52:30;;;;;;;33.97;21.30;;;13.90;1.00;;;;;;4938876;29;20562;-57
2023/03/09 07:54:58;;;;;;;28.88;20.60;;;13.90;1.00;;;;;;4955641;29;20028;-57
2023/03/09 07:57:26;;;;;;;25.90;19.50;;;13.90;1.00;;;;;;4955758;29;20524;-53
2023/03/09 07:59:54;;;;;;;29.83;19.98;;;13.80;1.00;;;;;;4955844;29;20086;-51
2023/03/09 08:02:21;;;;;;;26.75;20.02;;;13.90;1.00;;;;;;4955787;29;20019;-52
2023/03/09 08:04:47;;;;;;;27.50;19.35;;;13.90;1.00;;;;;;4954809;28;20035;-52
2023/03/09 08:07:37;;;;;;;29.60;20.88;;;13.90;1.00;;;;;;4955524;29;20097;-56
2023/03/09 08:10:04;;;;;;;29.13;19.33;;;13.90;1.00;;;;;;4955647;29;20031;-55
2023/03/09 08:12:29;;;;;;;29.40;20.77;;;13.80;1.00;;;;;;4955136;29;20027;-55
2023/03/09 08:14:55;;;;;;;27.25;19.40;;;13.90;1.00;;;;;;4955737;29;20034;-55
2023/03/09 08:17:21;;;;;;;30.00;20.40;;;13.90;1.00;;;;;;4955295;29;20027;-57
2023/03/09 08:19:46;;;;;;;28.35;19.95;;;13.90;1.00;;;;;;4955476;29;20054;-56
2023/03/09 08:22:12;;;;;;;30.27;19.25;;;14.00;1.00;;;;;;4955433;29;20098;-55
2023/03/09 08:24:38;;;;;;;27.27;21.13;;;14.00;1.00;;;;;;4955308;29;20027;-56
2023/03/09 08:27:03;;;;;;;23.02;18.75;;;14.00;1.00;;;;;;4955689;29;20034;-56
2023/03/09 08:29:29;;;;;;;27.00;18.52;;;14.00;1.00;;;;;;4954787;29;20431;-51
2023/03/09 08:31:55;;;;;;;29.00;19.90;;;14.00;1.00;;;;;;4937946;29;20047;-54
2023/03/09 08:34:21;;;;;;;25.05;20.17;;;14.00;1.00;;;;;;4955280;29;20102;-55
2023/03/09 08:36:46;;;;;;;27.42;19.92;;;14.00;1.00;;;;;;4955122;29;20030;-54
2023/03/09 08:39:12;;;;;;;25.02;18.45;;;14.00;1.00;;;;;;4955062;29;20477;-57
2023/03/09 08:41:38;;;;;;;24.98;17.58;;;14.10;1.00;;;;;;4955352;29;20023;-51
2023/03/09 08:44:04;;;;;;;26.55;17.95;;;14.10;1.00;;;;;;4955124;29;20381;-56
2023/03/09 08:46:29;;;;;;;33.33;19.80;;;14.10;1.00;;;;;;4954880;29;20031;-51
2023/03/09 08:48:56;;;;;;;27.42;20.83;;;14.10;1.00;;;;;;4955037;29;20039;-55
2023/03/09 08:51:22;;;;;;;28.35;21.50;;;14.20;1.00;;;;;;4954885;29;20035;-56
2023/03/09 08:53:48;;;;;;;28.27;21.85;;;14.20;1.00;;;;;;4954642;29;20040;-56
2023/03/09 08:56:14;;;;;;;25.83;19.95;;;14.20;1.00;;;;;;4937472;29;20027;-56
2023/03/09 08:58:54;;;;;;;25.38;20.08;;;14.30;1.00;;;;;;4957893;28;20090;-54
2023/03/09 09:01:26;;;;;;;25.00;18.35;;;14.30;1.00;;;;;;4937579;29;20032;-54
2023/03/09 09:03:52;;;;;;;27.92;20.13;;;14.20;1.00;;;;;;4954662;29;20016;-54
2023/03/09 09:06:18;;;;;;;25.80;19.02;;;14.30;1.00;;;;;;4953378;29;20485;-51
2023/03/09 09:08:44;;;;;;;27.60;19.45;;;14.40;1.00;;;;;;4954979;29;20027;-53
2023/03/09 09:11:14;;;;;;;32.25;20.65;;;14.40;1.00;;;;;;4954698;29;20362;-53
2023/03/09 09:13:40;;;;;;;28.83;19.25;;;14.40;1.00;;;;;;4954525;29;20529;-54
2023/03/09 09:16:08;;;;;;;24.45;17.60;;;14.40;1.00;;;;;;4938436;29;20035;-54
2023/03/09 09:18:38;;;;;;;21.55;16.35;;;14.50;1.00;;;;;;4958861;29;20027;-54
2023/03/09 09:21:07;;;;;;;20.38;14.07;;;14.50;1.00;;;;;;4945662;29;20114;-56
2023/03/09 09:23:38;;;;;;;20.70;14.75;;;14.50;1.00;;;;;;4941467;29;20117;-55
2023/03/09 09:26:05;;;;;;;17.23;12.75;;;14.60;1.00;;;;;;4958514;29;20051;-52
2023/03/09 09:28:31;;;;;;;21.50;14.40;;;14.50;1.00;;;;;;4958309;29;20440;-56
2023/03/09 09:30:59;;;;;;;21.50;15.40;;;14.60;1.00;;;;;;4956833;29;20062;-53
2023/03/09 09:33:29;;;;;;;19.63;14.38;;;14.50;1.00;;;;;;4956693;29;20035;-56
2023/03/09 09:35:58;;;;;;;17.00;13.27;;;14.50;1.00;;;;;;4956625;29;20158;-55
2023/03/09 09:38:25;;;;;;;22.17;14.70;;;14.60;1.00;;;;;;4957933;28;20564;-55
2023/03/09 09:40:53;;;;;;;16.65;12.45;;;14.60;1.00;;;;;;4956553;29;20027;-55
2023/03/09 09:43:24;;;;;;;15.25;10.25;;;14.70;1.00;;;;;;4956322;29;20030;-56
2023/03/09 09:45:53;;;;;;;16.55;12.13;;;14.70;1.00;;;;;;4955828;29;20023;-50
2023/03/09 09:48:22;;;;;;;13.70;9.80;;;14.70;1.00;;;;;;4953924;29;20552;-57
2023/03/09 09:51:13;;;;;;;20.00;11.75;;;14.80;1.00;;;;;;4956125;29;20054;-52
2023/03/09 09:53:54;;;;;;;16.42;12.80;;;14.90;1.00;;;;;;4939486;29;20048;-56
2023/03/09 09:56:26;;;;;;;15.88;11.43;;;14.90;1.00;;;;;;4953323;29;20031;-58
2023/03/09 09:59:04;;;;;;;15.10;10.68;;;15.00;1.00;;;;;;4953427;29;20033;-56
2023/03/09 10:02:09;;;;;;;13.32;9.82;;;15.00;1.00;;;;;;4954223;29;20023;-55
2023/03/09 10:05:05;;;;;;;14.98;9.68;;;15.00;1.00;;;;;;4933049;29;20087;-58
2023/03/09 10:07:32;;;;;;;14.63;9.40;;;15.10;1.00;;;;;;4920538;29;20051;-57
2023/03/09 10:10:04;;;;;;;15.05;10.63;;;15.00;1.00;;;;;;4956163;29;20434;-57
2023/03/09 10:12:30;;;;;;;17.77;10.55;;;15.00;1.00;;;;;;4955482;29;20449;-55
2023/03/09 10:15:34;;;;;;;17.02;10.05;;;15.10;1.00;;;;;;4955395;29;20019;-57
2023/03/09 10:18:06;;;;;;;15.70;10.65;;;15.30;1.00;;;;;;4890882;29;20044;-57
2023/03/09 10:20:49;;;;;;;18.42;10.73;;;15.30;1.00;;;;;;4944928;29;20057;-57
2023/03/09 10:23:33;;;;;;;18.88;12.15;;;15.40;1.00;;;;;;4955590;29;20031;-58
2023/03/09 10:26:37;;;;;;;16.65;11.65;;;15.50;1.00;;;;;;4954427;29;20091;-54
2023/03/09 10:29:13;;;;;;;16.73;11.35;;;15.60;1.00;;;;;;4948714;28;20126;-57
2023/03/09 10:32:02;;;;;;;21.00;11.27;;;15.60;1.00;;;;;;4955191;29;20043;-58
2023/03/09 10:34:32;;;;;;;15.77;11.63;;;15.60;1.00;;;;;;4952202;29;20481;-58
2023/03/09 10:37:10;;;;;;;16.33;11.45;;;15.70;1.00;;;;;;4955609;29;20385;-58
2023/03/09 10:39:43;;;;;;;21.83;12.52;;;15.70;1.00;;;;;;4955483;29;20031;-56
2023/03/09 10:42:24;;;;;;;18.52;13.57;;;15.80;1.00;;;;;;4955172;29;20409;-57
2023/03/09 10:45:24;;;;;;;21.42;13.07;;;16.00;1.00;;;;;;4955001;29;20031;-55
2023/03/09 10:48:08;;;;;;;14.82;10.50;;;16.10;1.00;;;;;;4941885;29;20034;-57
2023/03/09 10:50:40;;;;;;;16.20;10.88;;;16.20;1.00;;;;;;4955059;29;20027;-54
2023/03/09 10:53:28;;;;;;;16.98;10.82;;;16.20;1.00;;;;;;4953397;29;20498;-58
2023/03/09 10:56:17;;;;;;;13.65;10.52;;;16.20;1.00;;;;;;4952398;29;20031;-57
2023/03/09 10:58:43;;;;;;;17.05;11.15;;;16.30;1.00;;;;;;4951293;29;20090;-58
2023/03/09 11:01:12;;;;;;;15.80;10.32;;;16.40;1.00;;;;;;4925200;29;20031;-57
2023/03/09 11:03:38;;;;;;;14.55;10.43;;;16.40;1.00;;;;;;4955297;29;20031;-56
2023/03/09 11:06:22;;;;;;;17.40;11.65;;;16.50;1.00;;;;;;4954244;29;20075;-57
2023/03/09 11:09:13;;;;;;;17.15;11.18;;;16.60;1.00;;;;;;4955372;29;20027;-58
2023/03/09 11:11:40;;;;;;;19.45;10.52;;;16.70;1.00;;;;;;4955281;29;20524;-55
2023/03/09 11:14:29;;;;;;;18.90;11.90;;;16.70;1.00;;;;;;4956328;29;20102;-56
2023/03/09 11:16:57;;;;;;;14.82;10.85;;;16.70;1.00;;;;;;4950416;29;20512;-56
2023/03/09 11:19:25;;;;;;;19.05;11.60;;;16.70;1.00;;;;;;4956454;29;20023;-56
2023/03/09 11:21:56;;;;;;;16.73;11.13;;;16.80;1.00;;;;;;4956508;29;20050;-59
2023/03/09 11:24:31;;;;;;;16.08;11.75;;;16.80;1.00;;;;;;4956470;29;20058;-57
2023/03/09 11:27:09;;;;;;;13.75;10.70;;;16.80;1.00;;;;;;4956718;29;20066;-57
2023/03/09 11:29:49;;;;;;;15.18;10.77;;;16.80;1.00;;;;;;4943061;29;20074;-56
2023/03/09 11:32:15;;;;;;;15.68;11.68;;;16.90;1.00;;;;;;4956220;29;20047;-57
2023/03/09 11:34:42;;;;;;;17.55;10.57;;;16.90;1.00;;;;;;4957080;29;20023;-55
2023/03/09 11:37:35;;;;;;;16.63;10.90;;;16.90;1.00;;;;;;4956461;29;20027;-55
2023/03/09 11:40:10;;;;;;;15.23;10.60;;;16.90;1.00;;;;;;4943988;29;20082;-56
2023/03/09 11:42:49;;;;;;;17.08;11.52;;;17.00;1.00;;;;;;4955988;29;20035;-57
2023/03/09 11:45:24;;;;;;;16.17;11.25;;;17.10;1.00;;;;;;4946334;29;20027;-56
2023/03/09 11:47:57;;;;;;;17.40;10.60;;;17.30;1.00;;;;;;4938434;29;20035;-58
2023/03/09 11:50:29;;;;;;;13.95;10.93;;;17.50;1.00;;;;;;4956044;29;20031;-57
2023/03/09 11:53:12;;;;;;;15.00;11.43;;;17.50;1.00;;;;;;4955793;29;20047;-55
2023/03/09 11:55:44;;;;;;;13.20;10.05;;;17.60;1.00;;;;;;4955728;29;20065;-57
2023/03/09 11:58:15;;;;;;;16.50;11.18;;;17.80;1.00;;;;;;4955755;29;20027;-57
2023/03/09 12:00:46;;;;;;;15.20;9.73;;;17.70;1.00;;;;;;4955689;29;20532;-56
2023/03/09 12:03:15;;;;;;;14.57;10.75;;;17.80;1.00;;;;;;4955733;29;20027;-55
2023/03/09 12:05:54;;;;;;;14.50;10.98;;;17.80;1.00;;;;;;4955744;29;20051;-55
2023/03/09 12:08:46;;;;;;;13.20;10.38;;;17.80;1.00;;;;;;4955570;29;20026;-56
2023/03/09 12:11:16;;;;;;;15.48;10.77;;;17.90;1.00;;;;;;4953902;29;20366;-56
2023/03/09 12:13:51;;;;;;;14.32;10.77;;;18.00;1.00;;;;;;4955222;29;20027;-56
2023/03/09 12:16:45;;;;;;;13.38;9.95;;;18.10;1.00;;;;;;4955382;29;20027;-55
2023/03/09 12:19:16;;;;;;;15.98;10.70;;;18.20;1.00;;;;;;4935483;29;20370;-56
2023/03/09 12:22:00;;;;;;;15.88;12.32;;;18.20;1.00;;;;;;4955564;29;20031;-52
2023/03/09 12:24:40;;;;;;;13.77;11.13;;;18.30;1.00;;;;;;4955076;29;20020;-54
2023/03/09 12:27:16;;;;;;;17.45;11.63;;;18.30;1.00;;;;;;4955712;29;20362;-55
2023/03/09 12:29:46;;;;;;;23.90;11.90;;;18.30;1.00;;;;;;4955277;29;20106;-53
2023/03/09 12:32:24;;;;;;;17.10;11.95;;;18.40;1.00;;;;;;4955424;29;20066;-57
2023/03/09 12:34:57;;;;;;;17.90;10.85;;;18.70;1.00;;;;;;4955020;29;20035;-55
2023/03/09 12:37:35;;;;;;;19.13;11.07;;;18.90;1.00;;;;;;4954971;29;20031;-56
2023/03/09 12:40:16;;;;;;;15.65;10.95;;;19.10;1.00;;;;;;4951739;29;20031;-57
2023/03/09 12:42:49;;;;;;;15.48;11.00;;;19.10;1.00;;;;;;4946927;29;20109;-57
2023/03/09 12:45:18;;;;;;;15.95;11.60;;;19.30;1.00;;;;;;4955308;29;20162;-55
2023/03/09 12:47:48;;;;;;;14.57;11.13;;;19.30;1.00;;;;;;4955362;29;20170;-58
2023/03/09 12:50:20;;;;;;;14.00;10.43;;;19.30;1.00;;;;;;4954939;29;20459;-55
2023/03/09 12:53:13;;;;;;;12.75;8.85;;;19.40;1.00;;;;;;4954391;29;20047;-56
2023/03/09 12:55:39;;;;;;;12.82;9.40;;;19.40;1.00;;;;;;4941663;29;20034;-58